createdAt,value
2023-06-16T00:01:10.924Z,2.80
2023-06-16T00:03:38.634Z,2.40
2023-06-16T00:06:15.543Z,2.55
2023-06-16T00:08:48.719Z,2.60
2023-06-16T00:11:17.261Z,2.70
2023-06-16T00:13:46.443Z,2.75
2023-06-16T00:16:14.463Z,3.00
2023-06-16T00:18:44.585Z,2.75
2023-06-16T00:21:14.159Z,2.70
2023-06-16T00:23:42.193Z,2.78
2023-06-16T00:26:09.049Z,2.38
2023-06-16T00:28:35.907Z,2.60
2023-06-16T00:31:02.689Z,2.60
2023-06-16T00:33:29.586Z,2.90
2023-06-16T00:35:56.345Z,2.70
2023-06-16T00:38:23.612Z,2.78
2023-06-16T00:40:50.606Z,2.97
2023-06-16T00:43:17.370Z,2.65
2023-06-16T00:45:44.292Z,2.50
2023-06-16T00:48:11.463Z,2.75
2023-06-16T00:50:38.861Z,3.00
2023-06-16T00:53:06.023Z,2.70
2023-06-16T00:55:33.127Z,3.10
2023-06-16T00:58:00.781Z,2.72
2023-06-16T01:00:28.381Z,2.90
2023-06-16T01:02:56.841Z,2.85
2023-06-16T01:05:25.723Z,3.00
2023-06-16T01:08:04.843Z,2.90
2023-06-16T01:10:46.945Z,2.88
2023-06-16T01:16:13.013Z,3.17
2023-06-16T01:18:45.018Z,3.05
2023-06-16T01:21:39.534Z,2.83
2023-06-16T01:24:25.455Z,3.05
2023-06-16T01:26:56.459Z,3.15
2023-06-16T01:29:26.125Z,3.35
2023-06-16T01:31:56.376Z,3.20
2023-06-16T01:34:24.623Z,2.63
2023-06-16T01:36:53.075Z,3.17
2023-06-16T01:39:21.364Z,2.78
2023-06-16T01:41:49.827Z,2.90
2023-06-16T01:44:18.065Z,3.20
2023-06-16T01:46:45.885Z,3.00
2023-06-16T01:49:13.004Z,2.67
2023-06-16T01:51:40.325Z,3.05
2023-06-16T01:54:07.259Z,2.75
2023-06-16T01:56:34.185Z,2.60
2023-06-16T01:59:01.290Z,2.88
2023-06-16T02:01:35.712Z,3.08
2023-06-16T02:04:14.356Z,3.03
2023-06-16T02:07:09.048Z,3.10
2023-06-16T02:09:37.982Z,3.15
2023-06-16T02:12:06.512Z,2.67
2023-06-16T02:14:34.370Z,3.13
2023-06-16T02:17:06.601Z,2.97
2023-06-16T02:19:33.862Z,3.20
2023-06-16T02:22:01.673Z,3.15
2023-06-16T02:24:29.955Z,3.40
2023-06-16T02:26:56.797Z,3.47
2023-06-16T02:29:23.556Z,3.40
2023-06-16T02:31:51.785Z,3.03
2023-06-16T02:34:19.096Z,3.38
2023-06-16T02:36:47.221Z,3.33
2023-06-16T02:39:14.524Z,3.30
2023-06-16T02:41:42.648Z,3.50
2023-06-16T02:44:09.465Z,3.40
2023-06-16T02:46:36.334Z,3.35
2023-06-16T02:49:03.113Z,3.63
2023-06-16T02:51:29.989Z,2.95
2023-06-16T02:53:56.814Z,3.58
2023-06-16T02:56:25.058Z,3.50
2023-06-16T02:58:52.068Z,3.00
2023-06-16T03:01:18.960Z,3.25
2023-06-16T03:03:49.167Z,3.60
2023-06-16T03:06:17.547Z,3.53
2023-06-16T03:08:44.362Z,3.63
2023-06-16T03:11:11.610Z,3.30
2023-06-16T03:13:39.170Z,3.47
2023-06-16T03:16:07.764Z,3.30
2023-06-16T03:18:34.663Z,4.28
2023-06-16T03:21:02.320Z,3.20
2023-06-16T03:23:29.475Z,3.10
2023-06-16T03:25:56.404Z,3.17
2023-06-16T03:28:24.474Z,3.60
2023-06-16T03:30:53.512Z,3.20
2023-06-16T03:33:21.277Z,3.70
2023-06-16T03:35:48.112Z,3.40
2023-06-16T03:38:14.922Z,4.78
2023-06-16T03:40:41.796Z,3.30
2023-06-16T03:43:08.653Z,3.50
2023-06-16T03:45:35.413Z,3.17
2023-06-16T03:48:02.286Z,3.50
2023-06-16T03:50:29.177Z,3.45
2023-06-16T03:53:10.710Z,3.38
2023-06-16T03:55:42.038Z,3.30
2023-06-16T03:58:09.048Z,3.50
2023-06-16T04:23:18.438Z,2.85
2023-06-16T04:25:45.223Z,2.83
2023-06-16T04:28:15.059Z,3.47
2023-06-16T04:30:43.148Z,3.17
2023-06-16T04:33:10.692Z,3.60
2023-06-16T04:35:40.049Z,3.33
2023-06-16T04:38:08.131Z,4.20
2023-06-16T04:40:37.092Z,3.83
2023-06-16T04:43:04.272Z,3.83
2023-06-16T04:45:31.153Z,3.67
2023-06-16T04:47:58.006Z,3.70
2023-06-16T04:50:24.874Z,3.63
2023-06-16T04:52:52.704Z,3.70
2023-06-16T04:55:19.664Z,3.75
2023-06-16T04:57:46.477Z,3.40
2023-06-16T05:00:14.068Z,3.72
2023-06-16T05:02:44.105Z,3.67
2023-06-16T05:05:11.106Z,3.80
2023-06-16T05:07:38.630Z,3.80
2023-06-16T05:10:06.416Z,3.65
2023-06-16T05:12:33.797Z,3.83
2023-06-16T05:15:00.724Z,3.97
2023-06-16T05:17:27.647Z,3.65
2023-06-16T05:19:54.541Z,3.60
2023-06-16T05:22:24.779Z,3.63
2023-06-16T05:24:55.312Z,3.38
2023-06-16T05:27:24.053Z,4.07
2023-06-16T05:29:59.343Z,3.65
2023-06-16T05:32:27.585Z,3.70
2023-06-16T05:34:54.799Z,4.00
2023-06-16T05:37:21.808Z,3.65
2023-06-16T05:39:49.978Z,3.75
2023-06-16T05:42:17.058Z,3.90
2023-06-16T05:44:45.160Z,3.50
2023-06-16T05:47:12.762Z,3.15
2023-06-16T05:49:39.828Z,3.47
2023-06-16T05:52:07.453Z,3.55
2023-06-16T05:54:34.706Z,3.30
2023-06-16T05:57:02.128Z,3.47
2023-06-16T05:59:29.584Z,3.63
2023-06-16T06:01:56.714Z,3.50
2023-06-16T06:04:34.371Z,3.53
2023-06-16T06:07:04.433Z,3.38
2023-06-16T06:09:31.422Z,3.30
2023-06-16T06:11:58.335Z,3.22
2023-06-16T06:14:25.102Z,3.20
2023-06-16T06:16:52.654Z,3.38
2023-06-16T06:19:20.378Z,2.95
2023-06-16T06:21:47.315Z,3.30
2023-06-16T06:24:15.382Z,3.30
2023-06-16T06:26:44.202Z,3.20
2023-06-16T06:29:11.382Z,3.20
2023-06-16T06:31:38.428Z,3.00
2023-06-16T06:34:05.663Z,2.95
2023-06-16T06:36:34.812Z,2.85
2023-06-16T06:39:01.732Z,2.60
2023-06-16T06:41:28.993Z,2.65
2023-06-16T06:43:55.772Z,2.70
2023-06-16T06:46:22.664Z,2.78
2023-06-16T06:48:49.551Z,2.90
2023-06-16T06:51:16.391Z,2.50
2023-06-16T06:53:44.435Z,2.50
2023-06-16T06:56:11.228Z,2.65
2023-06-16T06:58:38.031Z,2.60
2023-06-16T07:01:04.815Z,2.60
2023-06-16T07:03:32.362Z,2.60
2023-06-16T07:05:59.380Z,2.63
2023-06-16T07:08:26.496Z,2.75
2023-06-16T07:10:53.409Z,2.50
2023-06-16T07:13:20.502Z,2.80
2023-06-16T07:15:47.577Z,2.45
2023-06-16T07:18:14.569Z,2.40
2023-06-16T07:20:41.509Z,2.40
2023-06-16T07:23:08.276Z,2.42
2023-06-16T07:25:37.498Z,2.45
2023-06-16T07:28:08.860Z,2.80
2023-06-16T07:30:35.769Z,3.00
2023-06-16T07:33:02.713Z,2.55
2023-06-16T07:35:29.532Z,2.60
2023-06-16T07:37:56.404Z,2.40
2023-06-16T07:40:23.342Z,2.45
2023-06-16T07:42:50.132Z,2.60
2023-06-16T07:45:18.457Z,2.80
2023-06-16T07:47:47.027Z,2.95
2023-06-16T07:50:14.789Z,2.83
2023-06-16T07:52:42.863Z,2.40
2023-06-16T07:55:11.807Z,2.47
2023-06-16T07:57:39.998Z,2.70
2023-06-16T08:00:12.366Z,2.80
2023-06-16T08:02:41.038Z,2.67
2023-06-16T08:05:11.301Z,3.05
2023-06-16T08:07:38.533Z,2.45
2023-06-16T08:10:06.402Z,2.35
2023-06-16T08:12:33.586Z,2.90
2023-06-16T08:15:00.789Z,2.47
2023-06-16T08:17:27.710Z,2.65
2023-06-16T08:19:54.603Z,2.83
2023-06-16T08:22:21.914Z,2.38
2023-06-16T08:24:48.734Z,2.50
2023-06-16T08:27:15.650Z,2.85
2023-06-16T08:29:42.548Z,2.83
2023-06-16T08:32:09.431Z,2.53
2023-06-16T08:34:37.251Z,2.60
2023-06-16T08:37:08.802Z,2.60
2023-06-16T08:39:47.550Z,2.55
2023-06-16T08:42:17.165Z,2.70
2023-06-16T08:44:44.770Z,2.63
2023-06-16T08:47:11.652Z,2.70
2023-06-16T08:49:40.965Z,2.60
2023-06-16T08:52:09.969Z,2.53
2023-06-16T08:54:49.035Z,2.53
2023-06-16T08:57:19.534Z,2.40
2023-06-16T08:59:51.301Z,2.42
2023-06-16T09:02:18.493Z,2.20
2023-06-16T09:04:45.886Z,2.75
2023-06-16T09:07:17.802Z,2.30
2023-06-16T09:09:44.587Z,2.60
2023-06-16T09:12:11.890Z,2.15
2023-06-16T09:14:40.112Z,2.40
2023-06-16T09:17:08.239Z,2.40
2023-06-16T09:19:48.716Z,2.35
2023-06-16T09:22:19.628Z,2.15
2023-06-16T09:25:00.936Z,2.20
2023-06-16T09:27:45.901Z,2.00
2023-06-16T09:30:16.663Z,2.20
2023-06-16T09:32:46.096Z,2.30
2023-06-16T09:35:21.358Z,2.40
2023-06-16T09:37:54.766Z,2.20
2023-06-16T09:40:27.861Z,2.40
2023-06-16T09:42:56.634Z,2.20
2023-06-16T09:45:31.471Z,2.33
2023-06-16T09:48:03.349Z,2.20
2023-06-16T09:50:32.076Z,2.35
2023-06-16T09:52:59.562Z,2.47
2023-06-16T09:55:28.283Z,2.30
2023-06-16T09:57:58.849Z,2.03
2023-06-16T10:00:26.262Z,2.20
2023-06-16T10:02:53.155Z,2.40
2023-06-16T10:05:20.734Z,2.42
2023-06-16T10:07:50.970Z,2.53
2023-06-16T10:10:24.815Z,2.10
2023-06-16T10:12:56.040Z,2.30
2023-06-16T10:15:33.006Z,2.45
2023-06-16T10:18:08.963Z,2.45
2023-06-16T10:20:39.877Z,2.05
2023-06-16T10:23:07.208Z,2.33
2023-06-16T10:25:35.838Z,2.20
2023-06-16T10:28:08.916Z,2.22
2023-06-16T10:30:37.267Z,2.20
2023-06-16T10:33:23.105Z,2.03
2023-06-16T10:36:07.690Z,2.03
2023-06-16T10:38:42.354Z,2.20
2023-06-16T10:41:15.607Z,2.15
2023-06-16T10:43:42.408Z,2.50
2023-06-16T10:46:21.306Z,2.10
2023-06-16T10:49:06.548Z,2.50
2023-06-16T10:52:00.670Z,2.45
2023-06-16T10:54:33.148Z,2.70
2023-06-16T10:57:14.743Z,2.35
2023-06-16T11:00:14.584Z,2.30
2023-06-16T11:03:01.442Z,2.40
2023-06-16T11:05:41.702Z,2.60
2023-06-16T11:08:11.231Z,2.50
2023-06-16T11:11:05.324Z,2.43
2023-06-16T11:13:37.655Z,2.55
2023-06-16T11:16:04.863Z,2.25
2023-06-16T11:18:35.061Z,2.10
2023-06-16T11:23:32.351Z,2.50
2023-06-16T11:26:11.570Z,2.70
2023-06-16T11:28:41.660Z,2.53
2023-06-16T11:31:11.320Z,2.42
2023-06-16T11:33:39.385Z,2.40
2023-06-16T11:36:24.577Z,2.20
2023-06-16T11:38:56.367Z,2.30
2023-06-16T11:41:28.896Z,2.53
2023-06-16T11:43:56.142Z,2.22
2023-06-16T11:46:29.223Z,2.10
2023-06-16T11:48:56.349Z,2.53
2023-06-16T11:51:26.873Z,2.38
2023-06-16T11:53:54.669Z,2.20
2023-06-16T11:56:25.817Z,2.72
2023-06-16T11:58:54.040Z,2.40
2023-06-16T12:01:22.931Z,2.60
2023-06-16T12:06:20.725Z,2.47
2023-06-16T12:08:49.662Z,2.25
2023-06-16T12:11:32.004Z,2.40
2023-06-16T12:13:59.142Z,2.50
2023-06-16T12:16:28.171Z,2.63
2023-06-16T12:18:57.339Z,2.42
2023-06-16T12:21:27.000Z,2.50
2023-06-16T12:23:59.606Z,2.33
2023-06-16T12:26:41.032Z,2.50
2023-06-16T12:29:13.630Z,2.17
2023-06-16T12:32:03.212Z,2.50
2023-06-16T12:34:34.061Z,2.30
2023-06-16T12:37:12.386Z,2.70
2023-06-16T12:39:41.864Z,2.40
2023-06-16T12:42:11.558Z,2.60
2023-06-16T12:44:46.231Z,2.50
2023-06-16T12:47:21.696Z,2.20
2023-06-16T12:49:48.937Z,2.42
2023-06-16T12:52:16.621Z,2.50
2023-06-16T12:54:44.445Z,2.58
2023-06-16T12:57:13.920Z,2.60
2023-06-16T12:59:41.912Z,2.20
2023-06-16T13:02:09.799Z,2.55
2023-06-16T13:04:36.934Z,2.53
2023-06-16T13:07:04.221Z,2.17
2023-06-16T13:09:31.061Z,2.47
2023-06-16T13:12:00.961Z,2.10
2023-06-16T13:14:29.386Z,2.42
2023-06-16T13:16:56.793Z,2.50
2023-06-16T13:19:23.642Z,2.63
2023-06-16T13:21:50.427Z,2.40
2023-06-16T13:24:18.502Z,2.40
2023-06-16T13:26:45.680Z,2.80
2023-06-16T13:29:12.656Z,2.55
2023-06-16T13:31:39.452Z,2.45
2023-06-16T13:34:06.253Z,2.28
2023-06-16T13:36:33.900Z,2.45
2023-06-16T13:39:02.716Z,2.70
2023-06-16T13:41:30.264Z,2.80
2023-06-16T13:43:57.086Z,2.60
2023-06-16T13:46:24.074Z,2.50
2023-06-16T13:48:50.952Z,2.47
2023-06-16T13:51:18.071Z,2.70
2023-06-16T13:53:45.038Z,2.08
2023-06-16T13:56:12.306Z,2.40
2023-06-16T13:58:39.435Z,2.50
2023-06-16T14:01:06.636Z,2.67
2023-06-16T14:03:33.619Z,2.53
2023-06-16T14:06:02.343Z,2.70
2023-06-16T14:08:29.197Z,2.53
2023-06-16T14:10:56.587Z,2.38
2023-06-16T14:13:24.646Z,2.72
2023-06-16T14:15:52.075Z,2.40
2023-06-16T14:18:19.629Z,2.50
2023-06-16T14:20:46.878Z,2.50
2023-06-16T14:23:16.051Z,2.40
2023-06-16T14:25:46.030Z,2.47
2023-06-16T14:28:14.308Z,2.53
2023-06-16T14:30:41.825Z,2.78
2023-06-16T14:33:10.906Z,2.60
2023-06-16T14:35:38.585Z,2.50
2023-06-16T14:38:05.482Z,2.75
2023-06-16T14:40:32.552Z,2.35
2023-06-16T14:42:59.693Z,2.70
2023-06-16T14:45:26.642Z,2.50
2023-06-16T14:47:53.597Z,3.20
2023-06-16T14:50:20.925Z,2.53
2023-06-16T14:52:47.878Z,2.83
2023-06-16T14:55:14.656Z,2.40
2023-06-16T14:57:41.508Z,2.55
2023-06-16T15:00:09.519Z,2.53
2023-06-16T15:02:36.459Z,2.58
2023-06-16T15:05:03.562Z,2.63
2023-06-16T15:07:31.481Z,2.42
2023-06-16T15:09:58.298Z,2.90
2023-06-16T15:12:25.105Z,2.88
2023-06-16T15:14:51.861Z,2.80
2023-06-16T15:17:18.612Z,2.80
2023-06-16T15:19:45.461Z,2.75
2023-06-16T15:22:12.235Z,3.10
2023-06-16T15:24:39.110Z,2.60
2023-06-16T15:27:06.704Z,2.75
2023-06-16T15:29:33.516Z,2.95
2023-06-16T15:32:00.342Z,2.72
2023-06-16T15:34:27.954Z,2.60
2023-06-16T15:36:54.791Z,2.60
2023-06-16T15:39:24.302Z,2.60
2023-06-16T15:41:51.229Z,2.88
2023-06-16T15:44:18.061Z,2.70
2023-06-16T15:46:44.975Z,2.28
2023-06-16T15:49:12.071Z,2.50
2023-06-16T15:51:40.576Z,2.47
2023-06-16T15:54:09.211Z,2.40
2023-06-16T15:56:36.068Z,2.75
2023-06-16T15:59:03.003Z,2.75
2023-06-16T16:01:30.047Z,2.65
2023-06-16T16:03:57.239Z,2.53
2023-06-16T16:06:24.258Z,2.80
2023-06-16T16:08:51.007Z,2.80
2023-06-16T16:11:19.005Z,2.95
2023-06-16T16:13:45.825Z,3.33
2023-06-16T16:16:12.835Z,3.00
2023-06-16T16:18:40.477Z,2.75
2023-06-16T16:21:08.225Z,2.88
2023-06-16T16:23:35.118Z,2.50
2023-06-16T16:26:01.936Z,2.83
2023-06-16T16:28:28.717Z,3.03
2023-06-16T16:30:55.588Z,2.75
2023-06-16T16:33:22.383Z,2.80
2023-06-16T16:35:49.217Z,2.95
2023-06-16T16:38:16.078Z,2.75
2023-06-16T16:40:42.857Z,2.55
2023-06-16T16:43:10.290Z,2.47
2023-06-16T16:45:37.445Z,2.33
2023-06-16T16:48:05.350Z,2.38
2023-06-16T16:50:32.252Z,2.47
2023-06-16T16:52:59.476Z,2.70
2023-06-16T16:55:35.830Z,2.25
2023-06-16T16:58:03.501Z,2.45
2023-06-16T17:00:30.647Z,2.30
2023-06-16T17:02:57.551Z,2.95
2023-06-16T17:05:24.551Z,2.65
2023-06-16T17:07:51.450Z,2.92
2023-06-16T17:10:18.611Z,2.80
2023-06-16T17:12:45.718Z,2.90
2023-06-16T17:15:12.532Z,3.10
2023-06-16T17:17:39.445Z,2.65
2023-06-16T17:20:07.024Z,2.45
2023-06-16T17:22:33.770Z,2.80
2023-06-16T17:25:00.583Z,2.88
2023-06-16T17:27:27.330Z,2.50
2023-06-16T17:29:54.148Z,2.55
2023-06-16T17:32:20.916Z,2.80
2023-06-16T17:34:47.751Z,2.85
2023-06-16T17:37:14.505Z,2.50
2023-06-16T17:39:41.256Z,2.90
2023-06-16T17:42:08.260Z,2.72
2023-06-16T17:44:35.020Z,2.83
2023-06-16T17:47:04.945Z,3.10
2023-06-16T17:49:31.792Z,3.10
2023-06-16T17:51:58.553Z,2.60
2023-06-16T17:54:25.673Z,2.90
2023-06-16T17:56:52.442Z,3.10
2023-06-16T17:59:19.270Z,2.60
2023-06-16T18:01:46.097Z,2.60
2023-06-16T18:04:12.987Z,2.80
2023-06-16T18:06:39.759Z,2.72
2023-06-16T18:09:06.762Z,2.63
2023-06-16T18:11:33.532Z,2.60
2023-06-16T18:14:01.930Z,4.88
2023-06-16T18:16:28.895Z,3.72
2023-06-16T18:18:55.673Z,3.08
2023-06-16T18:21:22.592Z,3.10
2023-06-16T18:23:49.415Z,3.10
2023-06-16T18:26:17.582Z,3.20
2023-06-16T18:28:44.481Z,2.75
2023-06-16T18:31:12.408Z,3.15
2023-06-16T18:33:39.203Z,3.35
2023-06-16T18:36:06.451Z,3.38
2023-06-16T18:38:33.253Z,2.95
2023-06-16T18:41:00.165Z,2.70
2023-06-16T18:43:28.308Z,2.97
2023-06-16T18:45:55.628Z,2.90
2023-06-16T18:48:22.631Z,2.50
2023-06-16T18:50:49.407Z,2.60
2023-06-16T18:53:16.181Z,2.83
2023-06-16T18:55:44.676Z,2.50
2023-06-16T18:58:11.627Z,2.72
2023-06-16T19:00:38.675Z,2.63
2023-06-16T19:03:06.115Z,2.70
2023-06-16T19:05:33.461Z,2.58
2023-06-16T19:08:01.030Z,2.63
2023-06-16T19:10:28.040Z,3.05
2023-06-16T19:12:54.990Z,2.88
2023-06-16T19:15:23.432Z,2.65
2023-06-16T19:17:51.758Z,2.95
2023-06-16T19:20:19.137Z,2.70
2023-06-16T19:22:46.689Z,2.80
2023-06-16T19:25:13.856Z,3.05
2023-06-16T19:27:40.656Z,2.90
2023-06-16T19:30:08.642Z,3.00
2023-06-16T19:32:35.938Z,2.55
2023-06-16T19:35:03.211Z,2.47
2023-06-16T19:37:33.912Z,2.85
2023-06-16T19:40:00.900Z,2.50
2023-06-16T19:42:27.665Z,2.53
2023-06-16T19:44:56.047Z,2.55
2023-06-16T19:47:25.128Z,2.80
2023-06-16T19:49:52.086Z,2.80
2023-06-16T19:52:18.900Z,2.45
2023-06-16T19:54:45.850Z,2.83
2023-06-16T19:57:13.222Z,2.67
2023-06-16T19:59:40.502Z,2.65
2023-06-16T20:02:07.800Z,2.63
2023-06-16T20:04:35.473Z,2.60
2023-06-16T20:07:02.795Z,2.65
2023-06-16T20:09:29.606Z,2.35
2023-06-16T20:11:56.416Z,2.30
2023-06-16T20:14:23.513Z,2.45
2023-06-16T20:16:50.388Z,2.55
2023-06-16T20:19:17.269Z,2.30
2023-06-16T20:21:44.057Z,2.35
2023-06-16T20:24:12.212Z,2.63
2023-06-16T20:26:39.738Z,2.42
2023-06-16T20:29:06.608Z,2.80
2023-06-16T20:31:34.384Z,2.53
2023-06-16T20:34:01.673Z,2.60
2023-06-16T20:36:28.553Z,2.33
2023-06-16T20:38:55.283Z,2.50
2023-06-16T20:41:29.510Z,2.38
2023-06-16T20:43:56.722Z,2.30
2023-06-16T20:46:24.378Z,2.40
2023-06-16T20:48:51.244Z,2.42
2023-06-16T20:51:18.067Z,2.40
2023-06-16T20:53:47.015Z,2.10
2023-06-16T20:56:14.328Z,2.50
2023-06-16T20:58:41.215Z,2.42
2023-06-16T21:01:09.301Z,2.42
2023-06-16T21:03:36.222Z,2.42
2023-06-16T21:06:03.158Z,2.20
2023-06-16T21:08:33.438Z,2.35
2023-06-16T21:11:01.085Z,2.10
2023-06-16T21:13:29.256Z,2.30
2023-06-16T21:16:01.705Z,2.40
2023-06-16T21:18:33.930Z,2.45
2023-06-16T21:21:00.713Z,2.20
2023-06-16T21:23:27.872Z,2.25
2023-06-16T21:25:54.676Z,2.22
2023-06-16T21:28:21.469Z,2.50
2023-06-16T21:30:48.221Z,2.20
2023-06-16T21:33:15.039Z,2.30
2023-06-16T21:35:41.807Z,2.17
2023-06-16T21:38:11.461Z,2.20
2023-06-16T21:40:38.664Z,2.38
2023-06-16T21:43:05.460Z,2.15
2023-06-16T21:45:32.212Z,2.00
2023-06-16T21:47:59.050Z,2.40
2023-06-16T21:50:25.996Z,2.50
2023-06-16T21:52:54.198Z,1.95
2023-06-16T21:55:20.952Z,2.47
2023-06-16T21:57:47.690Z,2.30
2023-06-16T22:00:14.957Z,2.42
2023-06-16T22:02:42.270Z,2.40
2023-06-16T22:05:11.167Z,2.35
2023-06-16T22:07:40.060Z,2.30
2023-06-16T22:10:09.848Z,2.40
2023-06-16T22:12:37.833Z,2.65
2023-06-16T22:15:06.100Z,2.40
2023-06-16T22:17:36.564Z,2.70
2023-06-16T22:20:07.324Z,2.58
2023-06-16T22:22:35.203Z,2.45
2023-06-16T22:25:02.223Z,2.80
2023-06-16T22:27:29.080Z,2.38
2023-06-16T22:29:56.705Z,2.50
2023-06-16T22:32:23.986Z,3.00
2023-06-16T22:34:50.886Z,2.58
2023-06-16T22:37:17.819Z,2.50
2023-06-16T22:39:49.020Z,2.60
2023-06-16T22:42:18.080Z,2.88
2023-06-16T22:44:45.737Z,2.67
2023-06-16T22:47:13.837Z,2.80
2023-06-16T22:49:40.790Z,2.08
2023-06-16T22:52:07.809Z,2.22
2023-06-16T22:54:34.631Z,2.90
2023-06-16T22:57:01.387Z,2.30
2023-06-16T22:59:28.319Z,2.70
2023-06-16T23:01:57.867Z,2.70
2023-06-16T23:04:24.919Z,2.40
2023-06-16T23:06:51.820Z,2.47
2023-06-16T23:09:18.586Z,2.42
2023-06-16T23:11:45.397Z,2.50
2023-06-16T23:14:12.150Z,2.58
2023-06-16T23:16:39.589Z,2.42
2023-06-16T23:19:07.184Z,2.45
2023-06-16T23:21:33.966Z,2.55
2023-06-16T23:24:00.790Z,2.47
2023-06-16T23:26:29.214Z,2.65
2023-06-16T23:28:56.026Z,2.70
2023-06-16T23:31:22.911Z,2.70
2023-06-16T23:33:50.328Z,2.40
2023-06-16T23:36:17.955Z,2.50
2023-06-16T23:38:49.435Z,2.75
2023-06-16T23:41:17.073Z,2.90
2023-06-16T23:43:43.878Z,2.58
2023-06-16T23:46:11.880Z,2.90
2023-06-16T23:48:38.681Z,2.97
2023-06-16T23:51:05.558Z,2.92
2023-06-16T23:53:32.517Z,2.63
2023-06-16T23:55:59.893Z,3.25
2023-06-16T23:58:28.955Z,2.85
